Terminal Aerodrome Forecast
Issued by NWS

Home | Current Version | Previous Version | Text Only | Print | Product List | Glossary On
Versions: 1 2 3 4 5 6 7 8 9 10 11 12 13 14 15 16 17 18
000
FTUS42 KTAE 291120
TAFVLD
TAF
KVLD 291120Z 2912/3012 VRB03KT P6SM FEW040
     FM291800 VRB03KT P6SM VCTS SCT040CB
      TEMPO 2918/2922 VRB15G25KT 2SM +TSRA BKN030CB
     FM300100 VRB03KT P6SM BKN040=

USA.gov is the U.S. government's official web portal to all federal, state and local government web resources and services.